Spirit Of New York — WCW9332 — position and weather

sailwx.info

Track history (hours):
 
Tides and Currents Weather Stations Pressure Air Temp Water Temp Dewpoint Dewpoint Depression Visibility Wind Speed Wind Dir Waves Ship Positions

Spirit Of New York

Owner: SPIRIT CRUISES LLC, NEW YORK, NY. More information available from US FCC via Universal Licensing System and Coast Guard Vessel Documentation Center.

Last reported at 2017-Mar-26 01:33 UTC. Time now 2017-Mar-26 13:05 UTC.
Position N 40°44' W 074°01'.

Length 62 m.

Type: Passenger vessel. MMSI: 338897000.

Date/timePositionNaut miles runAvg speedWind from/ knotsBaromVisibWave heightAir tempDewpointWater temp
2017-Mar-26 01:33N 40°44' W 074°01'3 2.5
2017-Mar-26 00:33N 40°42' W 074°01'2 2.2
2017-Mar-25 23:33N 40°44' W 074°01'1 0.9
2017-Mar-25 22:33N 40°45' W 074°01'0 0.0
2017-Mar-25 21:33N 40°45' W 074°01'0 0.0
2017-Mar-25 20:33N 40°45' W 074°01'0 0.0
2017-Mar-25 19:33N 40°45' W 074°01'0 0.0
2017-Mar-25 18:33N 40°45' W 074°01'1 1.4
2017-Mar-25 17:33N 40°43' W 074°01'1 1.3
2017-Mar-25 16:33N 40°42' W 074°01'3 2.8
2017-Mar-25 15:33N 40°45' W 074°01'0 0.0
2017-Mar-25 14:33N 40°45' W 074°01'0 0.0
2017-Mar-25 01:23N 40°45' W 074°01'4 4.6
2017-Mar-25 00:33N 40°41' W 074°02'3 3.3
2017-Mar-24 23:33N 40°44' W 074°01'1 0.6
2017-Mar-24 22:33N 40°45' W 074°01'0 0.0
2017-Mar-24 21:33N 40°45' W 074°01'0 0.0
2017-Mar-24 01:23N 40°45' W 074°01'4 4.8
2017-Mar-24 00:33N 40°41' W 074°02'4 4.1
2017-Mar-23 23:33N 40°45' W 074°01'0 0.3
2017-Mar-23 22:33N 40°45' W 074°01'0 0.0
2017-Mar-23 01:33N 40°45' W 074°01'4 3.9
2017-Mar-23 00:33N 40°41' W 074°02'5 4.9
2017-Mar-22 23:33N 40°46' W 074°00'1 1.1
2017-Mar-22 22:33N 40°45' W 074°01'0 0.0
2017-Mar-21 20:03N 40°45' W 074°01'2 3.8
2017-Mar-21 19:33N 40°43' W 074°01'2 1.9
2017-Mar-21 18:33N 40°45' W 074°01'0 0.0
2017-Mar-21 01:34N 40°45' W 074°01'4 3.6
2017-Mar-21 00:33N 40°41' W 074°02'4 4.2
2017-Mar-20 23:33N 40°45' W 074°01'1 0.6
2017-Mar-20 22:34N 40°45' W 074°01'0 0.0
2017-Mar-20 21:33N 40°45' W 074°01'0 0.0
2017-Mar-20 01:33N 40°45' W 074°01'4 4.2
2017-Mar-20 00:33N 40°41' W 074°02'4 4.4
2017-Mar-19 23:34N 40°45' W 074°01'0 0.4
2017-Mar-19 22:33N 40°45' W 074°01'1 0.1
2017-Mar-19 01:33N 40°44' W 074°01'2 1.9
2017-Mar-19 00:33N 40°42' W 073°59'3 3.3
2017-Mar-18 23:33N 40°46' W 074°01'1 0.7
2017-Mar-18 22:33N 40°45' W 074°01'0 0.0
2017-Mar-18 21:33N 40°45' W 074°01'0 0.0
2017-Mar-18 20:33N 40°45' W 074°01'0 0.0
2017-Mar-18 19:33N 40°45' W 074°01'0 0.0
2017-Mar-18 18:33N 40°45' W 074°01'0 0.5
2017-Mar-18 17:33N 40°45' W 074°01'3 2.6
2017-Mar-18 16:33N 40°42' W 074°01'3 0.2
2017-Mar-18 01:33N 40°45' W 074°01'4 3.9
2017-Mar-18 00:33N 40°41' W 074°02'4 4.3
2017-Mar-17 23:33N 40°45' W 074°01'0 0.4
2017-Mar-17 22:33N 40°45' W 074°01'0 0.0
2017-Mar-17 21:33N 40°45' W 074°01'0 0.0
2017-Mar-17 01:25N 40°45' W 074°01'4 4.1
2017-Mar-17 00:33N 40°42' W 074°02'3 2.8
2017-Mar-16 23:33N 40°44' W 074°01'1 0.8
2017-Mar-16 22:33N 40°45' W 074°01'0 0.0
2017-Mar-16 21:33N 40°45' W 074°01'0 0.0
2017-Mar-16 20:33N 40°45' W 074°01'0 0.0
2017-Mar-16 19:33N 40°45' W 074°01'0 0.0
2017-Mar-16 18:33N 40°45' W 074°01'1 0.5
2017-Mar-16 17:33N 40°45' W 074°01'3 2.6
2017-Mar-16 16:33N 40°42' W 074°00'3 2.9
2017-Mar-16 15:33N 40°45' W 074°01'0 0.0
2017-Mar-16 01:33N 40°45' W 074°01'  
Track history (hours):
 
Tides and Currents Weather Stations Pressure Air Temp Water Temp Dewpoint Dewpoint Depression Visibility Wind Speed Wind Dir Waves Ship Positions

Spirit Of New York

Owner: SPIRIT CRUISES LLC, NEW YORK, NY. More information available from US FCC via Universal Licensing System and Coast Guard Vessel Documentation Center.

Last reported at 2017-Mar-26 01:33 UTC. Time now 2017-Mar-26 13:05 UTC.
Position N 40°44' W 074°01'.

Length 62 m.

Type: Passenger vessel. MMSI: 338897000.

Date/timePositionNaut miles runAvg speedWind from/ knotsBaromVisibWave heightAir tempDewpointWater temp
2017-Mar-26 01:33N 40°44' W 074°01'3 2.5
2017-Mar-26 00:33N 40°42' W 074°01'2 2.2
2017-Mar-25 23:33N 40°44' W 074°01'1 0.9
2017-Mar-25 22:33N 40°45' W 074°01'0 0.0
2017-Mar-25 21:33N 40°45' W 074°01'0 0.0
2017-Mar-25 20:33N 40°45' W 074°01'0 0.0
2017-Mar-25 19:33N 40°45' W 074°01'0 0.0
2017-Mar-25 18:33N 40°45' W 074°01'1 1.4
2017-Mar-25 17:33N 40°43' W 074°01'1 1.3
2017-Mar-25 16:33N 40°42' W 074°01'3 2.8
2017-Mar-25 15:33N 40°45' W 074°01'0 0.0
2017-Mar-25 14:33N 40°45' W 074°01'0 0.0
2017-Mar-25 01:23N 40°45' W 074°01'4 4.6
2017-Mar-25 00:33N 40°41' W 074°02'3 3.3
2017-Mar-24 23:33N 40°44' W 074°01'1 0.6
2017-Mar-24 22:33N 40°45' W 074°01'0 0.0
2017-Mar-24 21:33N 40°45' W 074°01'0 0.0
2017-Mar-24 01:23N 40°45' W 074°01'4 4.8
2017-Mar-24 00:33N 40°41' W 074°02'4 4.1
2017-Mar-23 23:33N 40°45' W 074°01'0 0.3
2017-Mar-23 22:33N 40°45' W 074°01'0 0.0
2017-Mar-23 01:33N 40°45' W 074°01'4 3.9
2017-Mar-23 00:33N 40°41' W 074°02'5 4.9
2017-Mar-22 23:33N 40°46' W 074°00'1 1.1
2017-Mar-22 22:33N 40°45' W 074°01'0 0.0
2017-Mar-21 20:03N 40°45' W 074°01'2 3.8
2017-Mar-21 19:33N 40°43' W 074°01'2 1.9
2017-Mar-21 18:33N 40°45' W 074°01'0 0.0
2017-Mar-21 01:34N 40°45' W 074°01'4 3.6
2017-Mar-21 00:33N 40°41' W 074°02'4 4.2
2017-Mar-20 23:33N 40°45' W 074°01'1 0.6
2017-Mar-20 22:34N 40°45' W 074°01'0 0.0
2017-Mar-20 21:33N 40°45' W 074°01'0 0.0
2017-Mar-20 01:33N 40°45' W 074°01'4 4.2
2017-Mar-20 00:33N 40°41' W 074°02'4 4.4
2017-Mar-19 23:34N 40°45' W 074°01'0 0.4
2017-Mar-19 22:33N 40°45' W 074°01'1 0.1
2017-Mar-19 01:33N 40°44' W 074°01'2 1.9
2017-Mar-19 00:33N 40°42' W 073°59'3 3.3
2017-Mar-18 23:33N 40°46' W 074°01'1 0.7
2017-Mar-18 22:33N 40°45' W 074°01'0 0.0
2017-Mar-18 21:33N 40°45' W 074°01'0 0.0
2017-Mar-18 20:33N 40°45' W 074°01'0 0.0
2017-Mar-18 19:33N 40°45' W 074°01'0 0.0
2017-Mar-18 18:33N 40°45' W 074°01'0 0.5
2017-Mar-18 17:33N 40°45' W 074°01'3 2.6
2017-Mar-18 16:33N 40°42' W 074°01'3 0.2
2017-Mar-18 01:33N 40°45' W 074°01'4 3.9
2017-Mar-18 00:33N 40°41' W 074°02'4 4.3
2017-Mar-17 23:33N 40°45' W 074°01'0 0.4
2017-Mar-17 22:33N 40°45' W 074°01'0 0.0
2017-Mar-17 21:33N 40°45' W 074°01'0 0.0
2017-Mar-17 01:25N 40°45' W 074°01'4 4.1
2017-Mar-17 00:33N 40°42' W 074°02'3 2.8
2017-Mar-16 23:33N 40°44' W 074°01'1 0.8
2017-Mar-16 22:33N 40°45' W 074°01'0 0.0
2017-Mar-16 21:33N 40°45' W 074°01'0 0.0
2017-Mar-16 20:33N 40°45' W 074°01'0 0.0
2017-Mar-16 19:33N 40°45' W 074°01'0 0.0
2017-Mar-16 18:33N 40°45' W 074°01'1 0.5
2017-Mar-16 17:33N 40°45' W 074°01'3 2.6
2017-Mar-16 16:33N 40°42' W 074°00'3 2.9
2017-Mar-16 15:33N 40°45' W 074°01'0 0.0
2017-Mar-16 01:33N 40°45' W 074°01'  

Dump ship's entire track history